Time;durP1;ratioP1;P1;durP2;ratioP2;P2;SDS_P1;SDS_P2;PMS_P1;PMS_P2;Temp;Humidity;BMP_temperature;BMP_pressure;BME280_temperature;BME280_humidity;BME280_pressure;Samples;Min_cycle;Max_cycle;Signal;HPM_P1;HPM_P2
2023/01/31 00:00:28;;;;;;;5.07;0.95;;;;;;;;;;5006226;28;20072;-82
2023/01/31 00:02:53;;;;;;;3.60;0.85;;;;;;;;;;5000589;28;20026;-82
2023/01/31 00:05:19;;;;;;;6.50;1.38;;;;;;;;;;5001600;28;20029;-80
2023/01/31 00:07:46;;;;;;;9.90;2.38;;;;;;;;;;4998892;28;20034;-81
2023/01/31 00:10:11;;;;;;;9.88;1.40;;;;;;;;;;5001815;28;20022;-82
2023/01/31 00:12:37;;;;;;;5.78;1.83;;;;;;;;;;4999761;28;20092;-81
2023/01/31 00:15:02;;;;;;;14.43;1.95;;;;;;;;;;5002989;28;20106;-83
2023/01/31 00:17:28;;;;;;;4.78;0.95;;;;;;;;;;5003865;28;20033;-81
2023/01/31 00:19:53;;;;;;;6.53;0.85;;;;;;;;;;5002806;28;20022;-83
2023/01/31 00:22:18;;;;;;;8.63;1.25;;;;;;;;;;5004233;28;20118;-81
2023/01/31 00:24:43;;;;;;;6.00;1.20;;;;;;;;;;5003090;28;20046;-81
2023/01/31 00:27:08;;;;;;;7.35;1.10;;;;;;;;;;5001496;28;20057;-81
2023/01/31 00:29:34;;;;;;;6.13;1.13;;;;;;;;;;5002910;28;20030;-82
2023/01/31 00:31:59;;;;;;;11.43;1.10;;;;;;;;;;5003558;28;20340;-82
2023/01/31 00:34:24;;;;;;;6.78;1.33;;;;;;;;;;5006271;28;20038;-81
2023/01/31 00:36:49;;;;;;;6.93;1.40;;;;;;;;;;5005192;28;20101;-82
2023/01/31 00:39:15;;;;;;;9.35;1.45;;;;;;;;;;5005605;28;20506;-82
2023/01/31 00:41:40;;;;;;;8.75;1.35;;;;;;;;;;5004153;28;20019;-83
2023/01/31 00:44:05;;;;;;;6.72;1.42;;;;;;;;;;5004218;28;20878;-82
2023/01/31 00:46:31;;;;;;;10.77;1.13;;;;;;;;;;5002892;28;20018;-81
2023/01/31 00:48:56;;;;;;;2.03;0.60;;;;;;;;;;5002847;28;20405;-81
2023/01/31 00:51:23;;;;;;;7.35;1.23;;;;;;;;;;5001859;28;20094;-80
2023/01/31 00:53:49;;;;;;;6.88;1.45;;;;;;;;;;5000453;28;20061;-80
2023/01/31 00:56:22;;;;;;;9.88;1.63;;;;;;;;;;5000941;28;20029;-82
2023/01/31 00:58:48;;;;;;;10.25;2.45;;;;;;;;;;5000907;28;20030;-82
2023/01/31 01:01:23;;;;;;;6.22;1.10;;;;;;;;;;4999315;28;20033;-82
2023/01/31 01:03:52;;;;;;;14.43;1.60;;;;;;;;;;4999454;28;20117;-81
2023/01/31 01:06:18;;;;;;;2.95;0.68;;;;;;;;;;4997910;28;20033;-81
2023/01/31 01:08:44;;;;;;;4.70;0.82;;;;;;;;;;4996954;28;20030;-80
2023/01/31 01:11:11;;;;;;;2.63;0.80;;;;;;;;;;4998466;28;20424;-81
2023/01/31 01:13:37;;;;;;;4.10;0.80;;;;;;;;;;5000358;28;20069;-81
2023/01/31 01:16:08;;;;;;;4.50;1.17;;;;;;;;;;4998680;28;20116;-82
2023/01/31 01:18:34;;;;;;;5.50;0.77;;;;;;;;;;5000288;28;20022;-82
2023/01/31 01:21:27;;;;;;;4.07;0.70;;;;;;;;;;4999444;28;20030;-80
2023/01/31 01:23:55;;;;;;;6.50;1.08;;;;;;;;;;4998777;28;20042;-80
2023/01/31 01:26:24;;;;;;;4.05;0.80;;;;;;;;;;4999361;28;20529;-81
2023/01/31 01:28:50;;;;;;;5.55;0.82;;;;;;;;;;4998221;28;20035;-82
2023/01/31 01:31:17;;;;;;;3.85;0.70;;;;;;;;;;4983257;28;20081;-81
2023/01/31 01:33:43;;;;;;;4.35;0.57;;;;;;;;;;5002469;28;20030;-81
2023/01/31 01:36:12;;;;;;;3.97;1.08;;;;;;;;;;5001570;28;20106;-81
2023/01/31 01:38:39;;;;;;;2.10;0.55;;;;;;;;;;5003209;28;20050;-81
2023/01/31 01:41:05;;;;;;;1.70;0.73;;;;;;;;;;5005645;28;20030;-82
2023/01/31 01:43:48;;;;;;;3.67;0.70;;;;;;;;;;5004262;28;20061;-80
2023/01/31 01:46:20;;;;;;;4.63;0.73;;;;;;;;;;5004071;28;20098;-83
2023/01/31 01:48:49;;;;;;;4.07;0.68;;;;;;;;;;5004023;28;20041;-81
2023/01/31 01:51:18;;;;;;;3.53;0.73;;;;;;;;;;5005185;28;20350;-81
2023/01/31 01:53:48;;;;;;;3.47;0.95;;;;;;;;;;5003741;28;20109;-82
2023/01/31 01:56:20;;;;;;;4.88;1.10;;;;;;;;;;5005491;28;20030;-82
2023/01/31 01:59:00;;;;;;;4.63;1.10;;;;;;;;;;5003147;28;20042;-80
2023/01/31 02:01:32;;;;;;;4.93;0.88;;;;;;;;;;5003059;28;20023;-81
2023/01/31 02:03:57;;;;;;;5.35;0.80;;;;;;;;;;5004508;28;20068;-80
2023/01/31 02:06:23;;;;;;;4.05;0.55;;;;;;;;;;5002324;28;20026;-80
2023/01/31 02:08:48;;;;;;;8.40;0.85;;;;;;;;;;5004087;28;20030;-81
2023/01/31 02:11:22;;;;;;;7.03;1.15;;;;;;;;;;5001861;28;20033;-81
2023/01/31 02:13:49;;;;;;;3.30;1.10;;;;;;;;;;5003679;28;20412;-82
2023/01/31 02:16:15;;;;;;;3.15;0.75;;;;;;;;;;5003319;28;20106;-81
2023/01/31 02:18:41;;;;;;;4.15;1.30;;;;;;;;;;5004230;28;20062;-82
2023/01/31 02:21:31;;;;;;;9.98;1.38;;;;;;;;;;5002947;28;20077;-80
2023/01/31 02:24:12;;;;;;;8.93;1.23;;;;;;;;;;5004660;28;20030;-80
2023/01/31 02:27:01;;;;;;;8.18;1.23;;;;;;;;;;5005939;28;20026;-80
2023/01/31 02:30:06;;;;;;;4.75;0.68;;;;;;;;;;5005905;28;20030;-81
2023/01/31 02:32:51;;;;;;;5.35;1.10;;;;;;;;;;5004223;28;20401;-81
2023/01/31 02:35:43;;;;;;;5.70;1.05;;;;;;;;;;5001398;28;20076;-82
2023/01/31 02:38:33;;;;;;;8.77;1.15;;;;;;;;;;5003933;28;20026;-81
2023/01/31 02:41:22;;;;;;;6.70;1.05;;;;;;;;;;5003917;28;20102;-82
2023/01/31 02:46:59;;;;;;;6.78;1.25;;;;;;;;;;5004885;28;20052;-81
2023/01/31 02:49:39;;;;;;;8.85;1.90;;;;;;;;;;5004382;28;20158;-82
2023/01/31 02:52:20;;;;;;;6.47;1.17;;;;;;;;;;5016613;28;20056;-82
2023/01/31 02:58:11;;;;;;;10.55;1.10;;;;;;;;;;4998322;28;20026;-82
2023/01/31 03:00:40;;;;;;;9.90;1.45;;;;;;;;;;5018649;28;20034;-83
2023/01/31 03:03:11;;;;;;;7.30;1.52;;;;;;;;;;5019025;28;20026;-80
2023/01/31 03:05:37;;;;;;;7.38;1.65;;;;;;;;;;5020500;28;20030;-80
2023/01/31 03:08:04;;;;;;;5.80;1.10;;;;;;;;;;5019867;28;20077;-81
2023/01/31 03:10:49;;;;;;;3.50;0.80;;;;;;;;;;5020807;28;20018;-81
2023/01/31 03:13:53;;;;;;;4.60;0.77;;;;;;;;;;5020193;28;20018;-81
2023/01/31 03:19:37;;;;;;;;;;;;;;;;;;5020838;28;20029;-81
2023/01/31 03:22:22;;;;;;;5.47;1.42;;;;;;;;;;5019594;28;20031;-82
2023/01/31 03:24:49;;;;;;;4.13;1.20;;;;;;;;;;5020510;28;20038;-82
2023/01/31 03:27:15;;;;;;;6.97;1.55;;;;;;;;;;5020358;28;20022;-81
2023/01/31 03:29:42;;;;;;;8.45;1.17;;;;;;;;;;5020490;28;20038;-82
2023/01/31 03:32:22;;;;;;;15.25;1.05;;;;;;;;;;5019632;28;20052;-82
2023/01/31 03:34:48;;;;;;;5.95;1.38;;;;;;;;;;5020384;28;20043;-81
2023/01/31 03:37:41;;;;;;;3.33;0.80;;;;;;;;;;5019580;28;20053;-81
2023/01/31 03:40:30;;;;;;;8.82;1.40;;;;;;;;;;5018767;28;20110;-81
2023/01/31 03:43:03;;;;;;;9.40;1.20;;;;;;;;;;5018614;28;20061;-82
2023/01/31 03:45:35;;;;;;;5.43;1.47;;;;;;;;;;5016782;28;20085;-81
2023/01/31 03:48:02;;;;;;;9.40;1.45;;;;;;;;;;5014961;28;20256;-81
2023/01/31 03:50:39;;;;;;;7.75;1.15;;;;;;;;;;5007382;28;20398;-82
2023/01/31 03:53:29;;;;;;;6.50;0.82;;;;;;;;;;5002223;28;20034;-81
2023/01/31 03:55:56;;;;;;;7.22;1.10;;;;;;;;;;5003317;28;20034;-81
2023/01/31 03:58:29;;;;;;;7.72;1.50;;;;;;;;;;5002824;28;20030;-80
2023/01/31 04:00:58;;;;;;;3.22;0.70;;;;;;;;;;5003922;28;20049;-83
2023/01/31 04:03:27;;;;;;;9.57;1.10;;;;;;;;;;4999144;28;20124;-81
2023/01/31 04:05:52;;;;;;;3.45;0.90;;;;;;;;;;5000032;28;20062;-80
2023/01/31 04:08:18;;;;;;;5.65;1.25;;;;;;;;;;5000743;28;20054;-80
2023/01/31 04:10:43;;;;;;;8.88;1.30;;;;;;;;;;4998614;28;20025;-81
2023/01/31 04:13:08;;;;;;;6.18;1.23;;;;;;;;;;4999647;28;20026;-82
2023/01/31 04:15:34;;;;;;;6.95;1.23;;;;;;;;;;4999678;28;20021;-80
2023/01/31 04:17:59;;;;;;;6.20;1.30;;;;;;;;;;4999758;28;20064;-81
2023/01/31 04:20:24;;;;;;;5.85;1.15;;;;;;;;;;5000553;28;20391;-80
2023/01/31 04:22:49;;;;;;;3.65;0.90;;;;;;;;;;5000528;28;20323;-81
2023/01/31 04:25:15;;;;;;;4.75;1.42;;;;;;;;;;5001540;28;20026;-81
2023/01/31 04:27:40;;;;;;;5.13;1.20;;;;;;;;;;5001790;28;20486;-81
2023/01/31 04:30:06;;;;;;;6.47;1.30;;;;;;;;;;5000980;28;20029;-80
2023/01/31 04:32:31;;;;;;;6.05;1.45;;;;;;;;;;5001925;28;20032;-80
2023/01/31 04:34:57;;;;;;;8.73;1.13;;;;;;;;;;5001935;28;20056;-79
2023/01/31 04:37:22;;;;;;;7.80;1.30;;;;;;;;;;5002169;28;20256;-81
2023/01/31 04:39:48;;;;;;;5.25;1.00;;;;;;;;;;5001388;28;20256;-80
2023/01/31 04:42:13;;;;;;;5.75;1.42;;;;;;;;;;5003576;28;20034;-82
2023/01/31 04:44:38;;;;;;;6.40;1.30;;;;;;;;;;5005352;28;20026;-79
2023/01/31 04:47:04;;;;;;;6.70;1.30;;;;;;;;;;5004041;28;20397;-82
2023/01/31 04:49:29;;;;;;;10.77;1.98;;;;;;;;;;5006611;28;20627;-83
2023/01/31 04:51:54;;;;;;;9.25;1.58;;;;;;;;;;5007105;28;20397;-83
2023/01/31 04:54:20;;;;;;;6.03;1.20;;;;;;;;;;5007270;28;20034;-82
2023/01/31 04:56:45;;;;;;;6.78;1.02;;;;;;;;;;5007345;28;20036;-80
2023/01/31 04:59:11;;;;;;;7.03;1.60;;;;;;;;;;5007999;28;20033;-82
2023/01/31 05:01:36;;;;;;;5.97;1.50;;;;;;;;;;5006050;28;20089;-83
2023/01/31 05:04:01;;;;;;;12.10;1.67;;;;;;;;;;5006407;28;20436;-84
2023/01/31 05:06:26;;;;;;;8.00;1.30;;;;;;;;;;5007545;28;20038;-82
2023/01/31 05:08:53;;;;;;;13.15;1.50;;;;;;;;;;5006537;28;20022;-84
2023/01/31 05:11:21;;;;;;;6.40;1.20;;;;;;;;;;5008070;28;20023;-83
2023/01/31 05:13:47;;;;;;;9.73;1.45;;;;;;;;;;5008770;28;20049;-84
2023/01/31 05:16:13;;;;;;;5.05;1.35;;;;;;;;;;5011274;28;20109;-82
2023/01/31 05:18:38;;;;;;;7.53;1.38;;;;;;;;;;5011736;28;20084;-84
2023/01/31 05:21:05;;;;;;;4.70;1.25;;;;;;;;;;5012202;28;20489;-82
2023/01/31 05:23:33;;;;;;;10.40;1.52;;;;;;;;;;5011274;28;20082;-83
2023/01/31 05:25:59;;;;;;;8.27;1.92;;;;;;;;;;5012960;28;20042;-82
2023/01/31 05:28:25;;;;;;;12.45;1.50;;;;;;;;;;5011964;28;20026;-81
2023/01/31 05:30:51;;;;;;;4.82;1.10;;;;;;;;;;5011568;28;20050;-82
2023/01/31 05:33:19;;;;;;;9.25;1.42;;;;;;;;;;5011411;28;20033;-82
2023/01/31 05:35:48;;;;;;;7.25;1.15;;;;;;;;;;5009814;28;20026;-82
2023/01/31 05:38:14;;;;;;;4.28;1.17;;;;;;;;;;5011283;28;20027;-82
2023/01/31 05:40:39;;;;;;;14.68;1.75;;;;;;;;;;5012591;28;20022;-83
2023/01/31 05:43:04;;;;;;;12.65;1.33;;;;;;;;;;5009775;28;20090;-80
2023/01/31 05:45:30;;;;;;;7.95;1.23;;;;;;;;;;5009089;28;20076;-80
2023/01/31 05:47:55;;;;;;;11.88;1.65;;;;;;;;;;5009107;28;20030;-81
2023/01/31 05:50:21;;;;;;;11.95;1.10;;;;;;;;;;5008279;28;20037;-86
2023/01/31 05:52:53;;;;;;;6.53;1.55;;;;;;;;;;5008402;28;20094;-82
2023/01/31 05:55:19;;;;;;;5.70;1.27;;;;;;;;;;5008867;28;20026;-80
2023/01/31 05:57:45;;;;;;;13.10;1.50;;;;;;;;;;5009383;28;20077;-80
2023/01/31 06:00:11;;;;;;;3.85;1.02;;;;;;;;;;5008435;28;20038;-81
2023/01/31 06:02:36;;;;;;;10.80;1.90;;;;;;;;;;5008374;28;20026;-81
2023/01/31 06:05:01;;;;;;;12.40;1.45;;;;;;;;;;5009326;28;20026;-81
2023/01/31 06:07:27;;;;;;;9.45;1.23;;;;;;;;;;5006503;28;20113;-80
2023/01/31 06:09:55;;;;;;;4.20;1.15;;;;;;;;;;5005155;28;20030;-80
2023/01/31 06:12:20;;;;;;;6.20;1.40;;;;;;;;;;5004297;28;20022;-81
2023/01/31 06:14:45;;;;;;;3.83;1.17;;;;;;;;;;5006433;28;20073;-79
2023/01/31 06:17:11;;;;;;;3.38;1.10;;;;;;;;;;5005890;28;20260;-80
2023/01/31 06:19:37;;;;;;;8.68;1.88;;;;;;;;;;5005899;28;20034;-82
2023/01/31 06:22:03;;;;;;;7.53;1.42;;;;;;;;;;5005283;28;20385;-80
2023/01/31 06:24:28;;;;;;;7.32;1.77;;;;;;;;;;5004131;28;20358;-79
2023/01/31 06:26:54;;;;;;;2.67;0.90;;;;;;;;;;5004592;28;20061;-79
2023/01/31 06:29:19;;;;;;;6.15;1.58;;;;;;;;;;5005602;28;20034;-80
2023/01/31 06:31:44;;;;;;;7.00;1.13;;;;;;;;;;5006990;28;20397;-82
2023/01/31 06:34:10;;;;;;;7.45;1.48;;;;;;;;;;5006393;28;20146;-81
2023/01/31 06:36:35;;;;;;;4.22;1.08;;;;;;;;;;5006377;28;20026;-81
2023/01/31 06:39:00;;;;;;;6.20;1.30;;;;;;;;;;5005215;28;20057;-82
2023/01/31 06:41:25;;;;;;;7.53;1.25;;;;;;;;;;5007594;28;20034;-83
2023/01/31 06:43:51;;;;;;;9.02;1.40;;;;;;;;;;5006161;28;20504;-82
2023/01/31 06:46:16;;;;;;;3.35;0.98;;;;;;;;;;5005080;28;20442;-80
2023/01/31 06:48:42;;;;;;;5.30;1.20;;;;;;;;;;5005554;28;20022;-83
2023/01/31 06:51:07;;;;;;;4.35;1.15;;;;;;;;;;5004593;28;20516;-83
2023/01/31 06:53:33;;;;;;;9.95;1.17;;;;;;;;;;5005712;28;20026;-81
2023/01/31 06:55:58;;;;;;;4.95;1.25;;;;;;;;;;5005579;28;20073;-81
2023/01/31 06:58:23;;;;;;;5.23;1.07;;;;;;;;;;5005804;28;20026;-81
2023/01/31 07:00:48;;;;;;;9.20;1.27;;;;;;;;;;5001373;28;20307;-81
2023/01/31 07:03:14;;;;;;;5.68;1.40;;;;;;;;;;5004360;28;20026;-80
2023/01/31 07:05:39;;;;;;;6.93;1.35;;;;;;;;;;5005506;28;20034;-82
2023/01/31 07:08:04;;;;;;;8.40;1.25;;;;;;;;;;5004768;28;20089;-80
2023/01/31 07:10:30;;;;;;;9.40;1.25;;;;;;;;;;5005486;28;20022;-82
2023/01/31 07:12:55;;;;;;;6.28;1.40;;;;;;;;;;5004405;28;20041;-82
2023/01/31 07:15:20;;;;;;;10.82;1.40;;;;;;;;;;5003184;28;20026;-80
2023/01/31 07:17:46;;;;;;;5.00;1.27;;;;;;;;;;5004209;28;20041;-82
2023/01/31 07:20:14;;;;;;;8.95;1.42;;;;;;;;;;5004258;28;20022;-82
2023/01/31 07:22:39;;;;;;;7.53;1.20;;;;;;;;;;5003807;28;20028;-81
2023/01/31 07:25:04;;;;;;;5.50;1.20;;;;;;;;;;5002789;28;20034;-79
2023/01/31 07:27:30;;;;;;;2.70;1.08;;;;;;;;;;5003804;28;20030;-80
2023/01/31 07:29:55;;;;;;;7.32;1.10;;;;;;;;;;5004435;28;20038;-82
2023/01/31 07:32:20;;;;;;;3.70;1.20;;;;;;;;;;5002985;28;20121;-80
2023/01/31 07:34:45;;;;;;;5.57;1.38;;;;;;;;;;5005936;28;20339;-82
2023/01/31 07:37:11;;;;;;;7.22;1.58;;;;;;;;;;5003095;28;20054;-80
2023/01/31 07:39:36;;;;;;;8.75;1.17;;;;;;;;;;5003695;28;20034;-80
2023/01/31 07:42:01;;;;;;;10.07;1.50;;;;;;;;;;5005537;28;20100;-80
2023/01/31 07:44:26;;;;;;;4.60;0.90;;;;;;;;;;5006017;28;20138;-81
2023/01/31 07:46:53;;;;;;;5.57;1.15;;;;;;;;;;5003763;28;20121;-82
2023/01/31 07:49:19;;;;;;;8.02;1.00;;;;;;;;;;5002509;28;20026;-80
2023/01/31 07:51:44;;;;;;;4.53;1.05;;;;;;;;;;5003740;28;20026;-82
2023/01/31 07:54:10;;;;;;;5.03;1.00;;;;;;;;;;5005639;28;20057;-81
2023/01/31 07:56:36;;;;;;;4.05;0.85;;;;;;;;;;5007176;28;20038;-80
2023/01/31 07:59:01;;;;;;;5.70;1.08;;;;;;;;;;5005108;28;20084;-80
2023/01/31 08:04:12;;;;;;;;;;;;;;;;;;5005004;28;20030;-82
2023/01/31 08:06:39;;;;;;;7.15;1.40;;;;;;;;;;5003280;28;19913;-82
2023/01/31 08:09:04;;;;;;;6.13;1.20;;;;;;;;;;5007270;28;20026;-83
2023/01/31 08:11:30;;;;;;;5.40;1.10;;;;;;;;;;5004239;28;20036;-82
2023/01/31 08:13:55;;;;;;;6.90;1.10;;;;;;;;;;5007345;28;20030;-81
2023/01/31 08:16:21;;;;;;;2.38;0.77;;;;;;;;;;5006251;28;20022;-82
2023/01/31 08:18:47;;;;;;;6.70;1.20;;;;;;;;;;5006886;28;20065;-81
2023/01/31 08:21:13;;;;;;;6.82;1.00;;;;;;;;;;5006992;28;20034;-83
2023/01/31 08:23:39;;;;;;;6.78;1.08;;;;;;;;;;5006479;28;20026;-80
2023/01/31 08:26:12;;;;;;;13.50;1.83;;;;;;;;;;5004809;28;20026;-82
2023/01/31 08:28:38;;;;;;;4.68;1.02;;;;;;;;;;5006206;28;20039;-82
2023/01/31 08:31:04;;;;;;;5.65;1.20;;;;;;;;;;5004069;28;20058;-82
2023/01/31 08:33:29;;;;;;;6.35;1.30;;;;;;;;;;5006459;28;20500;-82
2023/01/31 08:35:55;;;;;;;8.73;1.40;;;;;;;;;;5004593;28;20035;-82
2023/01/31 08:38:20;;;;;;;6.95;1.08;;;;;;;;;;5003941;28;20038;-82
2023/01/31 08:40:47;;;;;;;4.90;1.05;;;;;;;;;;5004269;28;20040;-82
2023/01/31 08:43:12;;;;;;;3.92;0.90;;;;;;;;;;5004937;28;20021;-81
2023/01/31 08:45:38;;;;;;;3.00;0.82;;;;;;;;;;5003116;28;20465;-82
2023/01/31 08:48:04;;;;;;;6.53;1.10;;;;;;;;;;5002248;28;20053;-82
2023/01/31 08:50:30;;;;;;;5.13;0.90;;;;;;;;;;5005411;28;20029;-82
2023/01/31 08:53:01;;;;;;;4.18;0.85;;;;;;;;;;5002442;28;20030;-82
2023/01/31 08:55:28;;;;;;;7.50;1.45;;;;;;;;;;5004013;28;20093;-82
2023/01/31 08:57:53;;;;;;;6.75;1.40;;;;;;;;;;5005788;28;20030;-82
2023/01/31 09:00:20;;;;;;;8.95;0.90;;;;;;;;;;5006786;28;20032;-81
2023/01/31 09:02:57;;;;;;;5.30;1.08;;;;;;;;;;5005477;28;20034;-82
2023/01/31 09:05:24;;;;;;;1.85;0.82;;;;;;;;;;5006640;28;20037;-81
2023/01/31 09:07:50;;;;;;;4.57;0.75;;;;;;;;;;5005992;28;20026;-81
2023/01/31 09:10:17;;;;;;;7.72;1.27;;;;;;;;;;5004831;28;20033;-81
2023/01/31 09:12:42;;;;;;;4.47;1.05;;;;;;;;;;5004558;28;20339;-80
2023/01/31 09:15:07;;;;;;;8.55;1.52;;;;;;;;;;5005417;28;20090;-79
2023/01/31 09:17:33;;;;;;;4.30;0.88;;;;;;;;;;5006466;28;20034;-81
2023/01/31 09:19:58;;;;;;;6.05;1.00;;;;;;;;;;5005797;28;20026;-81
2023/01/31 09:22:23;;;;;;;2.30;0.95;;;;;;;;;;5004637;28;20034;-81
2023/01/31 09:24:48;;;;;;;6.22;1.10;;;;;;;;;;5008020;28;20058;-80
2023/01/31 09:27:14;;;;;;;5.10;0.93;;;;;;;;;;5009119;28;20119;-81
2023/01/31 09:29:39;;;;;;;4.75;1.40;;;;;;;;;;5007658;28;20481;-81
2023/01/31 09:32:06;;;;;;;2.75;1.02;;;;;;;;;;5008399;28;20026;-81
2023/01/31 09:34:31;;;;;;;5.82;1.17;;;;;;;;;;5009423;28;20029;-81
2023/01/31 09:36:56;;;;;;;5.22;1.05;;;;;;;;;;5008027;28;20035;-80
2023/01/31 09:39:22;;;;;;;4.53;1.13;;;;;;;;;;5008737;28;20034;-82
2023/01/31 09:41:55;;;;;;;6.30;1.10;;;;;;;;;;5008455;28;20085;-82
2023/01/31 09:44:31;;;;;;;4.22;0.90;;;;;;;;;;5009317;28;20037;-81
2023/01/31 09:47:08;;;;;;;2.40;0.90;;;;;;;;;;5009770;28;20042;-83
2023/01/31 09:49:45;;;;;;;4.45;1.02;;;;;;;;;;5009865;28;20026;-82
2023/01/31 09:52:11;;;;;;;3.03;0.63;;;;;;;;;;5007376;28;20023;-82
2023/01/31 09:54:39;;;;;;;5.85;0.98;;;;;;;;;;5007600;28;20484;-81
2023/01/31 09:57:10;;;;;;;4.35;0.98;;;;;;;;;;5009179;28;20026;-81
2023/01/31 10:00:02;;;;;;;7.82;1.00;;;;;;;;;;5010130;28;20022;-81
2023/01/31 10:02:33;;;;;;;5.60;1.00;;;;;;;;;;5013176;28;20034;-79
2023/01/31 10:05:32;;;;;;;4.78;1.25;;;;;;;;;;5012652;28;20027;-81
2023/01/31 10:08:12;;;;;;;7.57;1.40;;;;;;;;;;5013442;28;20030;-81
2023/01/31 10:10:43;;;;;;;8.27;1.08;;;;;;;;;;5012855;28;20030;-82
2023/01/31 10:13:28;;;;;;;8.10;1.15;;;;;;;;;;5013217;28;20034;-81
2023/01/31 10:16:02;;;;;;;7.88;1.45;;;;;;;;;;5011704;28;20036;-82
2023/01/31 10:18:31;;;;;;;6.93;0.68;;;;;;;;;;5013430;28;20027;-82
2023/01/31 10:21:03;;;;;;;6.40;1.15;;;;;;;;;;5012884;28;20047;-81
2023/01/31 10:23:34;;;;;;;4.75;1.13;;;;;;;;;;5012439;28;20026;-81
2023/01/31 10:26:02;;;;;;;7.10;1.63;;;;;;;;;;5012344;28;20033;-82
2023/01/31 10:28:32;;;;;;;3.95;1.00;;;;;;;;;;5011573;28;20085;-83
2023/01/31 10:31:15;;;;;;;2.17;1.00;;;;;;;;;;5011480;28;20057;-81
2023/01/31 10:33:59;;;;;;;4.13;1.30;;;;;;;;;;5008743;28;20041;-82
2023/01/31 10:36:33;;;;;;;4.88;0.90;;;;;;;;;;5012401;28;20167;-80
2023/01/31 10:39:06;;;;;;;6.80;0.88;;;;;;;;;;5010286;28;20034;-82
2023/01/31 10:41:51;;;;;;;5.45;1.35;;;;;;;;;;5010274;28;20027;-82
2023/01/31 10:44:24;;;;;;;4.10;1.30;;;;;;;;;;5010941;28;20033;-81
2023/01/31 10:46:54;;;;;;;8.52;1.10;;;;;;;;;;5011781;28;20030;-81
2023/01/31 10:49:25;;;;;;;5.13;1.10;;;;;;;;;;5006920;28;20026;-81
2023/01/31 10:52:24;;;;;;;5.05;1.10;;;;;;;;;;5009577;28;20046;-81
2023/01/31 10:55:27;;;;;;;4.00;1.40;;;;;;;;;;5006652;28;20170;-81
2023/01/31 10:57:53;;;;;;;4.55;0.73;;;;;;;;;;5007273;28;20037;-80
2023/01/31 11:00:22;;;;;;;3.40;0.88;;;;;;;;;;5003873;28;20413;-81
2023/01/31 11:02:47;;;;;;;7.43;1.00;;;;;;;;;;5004078;28;20038;-81
2023/01/31 11:05:19;;;;;;;2.75;1.08;;;;;;;;;;5001138;28;20445;-79
2023/01/31 11:07:45;;;;;;;5.60;1.27;;;;;;;;;;5001434;28;20026;-82
2023/01/31 11:10:26;;;;;;;2.13;0.75;;;;;;;;;;5000040;28;20031;-82
2023/01/31 11:12:56;;;;;;;6.65;1.35;;;;;;;;;;5000690;28;20033;-80
2023/01/31 11:15:25;;;;;;;5.00;1.08;;;;;;;;;;5002182;28;20497;-80
2023/01/31 11:17:51;;;;;;;8.07;1.05;;;;;;;;;;5004829;28;20026;-81
2023/01/31 11:20:30;;;;;;;7.32;1.00;;;;;;;;;;5001493;28;20030;-81
2023/01/31 11:22:57;;;;;;;5.13;1.10;;;;;;;;;;5002498;28;20118;-81
2023/01/31 11:25:24;;;;;;;5.43;1.33;;;;;;;;;;5003345;28;20034;-82
2023/01/31 11:27:53;;;;;;;3.05;1.02;;;;;;;;;;5003094;28;20029;-82
2023/01/31 11:30:27;;;;;;;5.47;1.05;;;;;;;;;;5004644;28;20489;-83
2023/01/31 11:32:52;;;;;;;3.55;0.98;;;;;;;;;;5002875;28;20051;-82
2023/01/31 11:35:18;;;;;;;6.97;1.40;;;;;;;;;;5002981;28;20101;-82
2023/01/31 11:37:54;;;;;;;7.65;2.40;;;;;;;;;;5003379;28;20058;-80
2023/01/31 11:40:32;;;;;;;6.15;1.58;;;;;;;;;;5001311;28;20413;-80
2023/01/31 11:43:05;;;;;;;3.33;1.20;;;;;;;;;;5003731;28;20070;-82
2023/01/31 11:45:33;;;;;;;2.40;0.57;;;;;;;;;;5004475;28;20029;-81
2023/01/31 11:48:11;;;;;;;5.38;1.35;;;;;;;;;;5001490;28;20039;-81
2023/01/31 11:50:43;;;;;;;6.13;1.38;;;;;;;;;;4999583;28;20054;-79
2023/01/31 11:53:17;;;;;;;3.10;1.15;;;;;;;;;;5001313;28;20035;-80
2023/01/31 11:55:43;;;;;;;5.38;1.42;;;;;;;;;;5000341;28;20030;-81
2023/01/31 11:58:19;;;;;;;5.20;1.13;;;;;;;;;;4982246;28;20037;-81
2023/01/31 12:00:55;;;;;;;9.70;1.52;;;;;;;;;;5000476;28;20033;-80
2023/01/31 12:03:21;;;;;;;7.57;1.23;;;;;;;;;;4999648;28;20508;-79
2023/01/31 12:05:59;;;;;;;3.75;1.33;;;;;;;;;;5001043;28;20041;-81
2023/01/31 12:08:28;;;;;;;10.57;1.38;;;;;;;;;;5002930;28;20481;-83
2023/01/31 12:10:54;;;;;;;8.68;1.40;;;;;;;;;;4999321;28;20030;-82
2023/01/31 12:13:21;;;;;;;4.10;1.17;;;;;;;;;;5000790;28;20049;-82
2023/01/31 12:15:57;;;;;;;8.25;1.50;;;;;;;;;;5001062;28;20041;-82
2023/01/31 12:18:45;;;;;;;8.02;1.80;;;;;;;;;;5001099;28;20026;-82
2023/01/31 12:21:33;;;;;;;6.25;1.63;;;;;;;;;;4999598;28;20058;-81
2023/01/31 12:24:12;;;;;;;3.03;1.38;;;;;;;;;;4999867;28;20026;-83
2023/01/31 12:26:47;;;;;;;7.28;1.70;;;;;;;;;;5002283;28;20030;-81
2023/01/31 12:29:50;;;;;;;5.68;1.30;;;;;;;;;;5003988;28;20061;-83
2023/01/31 12:32:37;;;;;;;8.27;1.13;;;;;;;;;;5007122;28;20030;-81
2023/01/31 12:35:24;;;;;;;5.72;1.50;;;;;;;;;;5007620;28;20052;-80
2023/01/31 12:37:58;;;;;;;5.95;1.35;;;;;;;;;;5005769;28;20025;-82
2023/01/31 12:40:43;;;;;;;5.70;1.30;;;;;;;;;;5004480;28;20052;-81
2023/01/31 12:43:32;;;;;;;6.82;1.50;;;;;;;;;;5004555;28;20076;-81
2023/01/31 12:46:14;;;;;;;7.18;1.33;;;;;;;;;;5006002;28;20033;-82
2023/01/31 12:48:43;;;;;;;6.90;1.65;;;;;;;;;;5007845;28;20042;-82
2023/01/31 12:51:28;;;;;;;5.43;1.50;;;;;;;;;;5005607;28;20405;-81
2023/01/31 12:54:19;;;;;;;4.85;1.52;;;;;;;;;;5006315;28;20033;-81
2023/01/31 12:56:50;;;;;;;6.50;1.50;;;;;;;;;;5006103;28;20089;-81
2023/01/31 12:59:49;;;;;;;8.10;1.90;;;;;;;;;;5007299;28;20115;-82
2023/01/31 13:02:49;;;;;;;4.45;1.20;;;;;;;;;;5005718;28;20053;-81
2023/01/31 13:05:27;;;;;;;5.55;1.48;;;;;;;;;;5006522;28;20029;-80
2023/01/31 13:08:01;;;;;;;7.00;1.50;;;;;;;;;;5005956;28;20045;-83
2023/01/31 13:10:34;;;;;;;7.93;1.80;;;;;;;;;;5007385;28;20032;-81
2023/01/31 13:13:01;;;;;;;7.03;1.88;;;;;;;;;;5006456;28;20065;-81
2023/01/31 13:15:32;;;;;;;6.50;1.58;;;;;;;;;;5007479;28;20023;-81
2023/01/31 13:18:04;;;;;;;6.70;1.70;;;;;;;;;;5006429;28;20031;-82
2023/01/31 13:20:59;;;;;;;6.88;1.65;;;;;;;;;;5000345;28;20022;-79
2023/01/31 13:23:39;;;;;;;6.53;1.77;;;;;;;;;;4999913;28;20026;-78
2023/01/31 13:26:17;;;;;;;9.95;1.90;;;;;;;;;;5000940;28;20041;-79
2023/01/31 13:28:50;;;;;;;5.82;1.52;;;;;;;;;;5001693;28;20030;-78
2023/01/31 13:31:44;;;;;;;5.68;1.83;;;;;;;;;;5000667;28;20476;-79
2023/01/31 13:34:24;;;;;;;8.05;2.15;;;;;;;;;;4991015;28;20574;-77
2023/01/31 13:36:55;;;;;;;6.03;1.65;;;;;;;;;;5006430;28;20030;-79
2023/01/31 13:39:43;;;;;;;4.93;1.70;;;;;;;;;;5007259;28;20057;-82
2023/01/31 13:42:13;;;;;;;7.85;2.40;;;;;;;;;;5011246;28;20385;-81
2023/01/31 13:44:39;;;;;;;8.80;1.88;;;;;;;;;;5011782;28;20029;-81
2023/01/31 13:47:29;;;;;;;3.17;1.40;;;;;;;;;;5008926;28;20405;-81
2023/01/31 13:50:01;;;;;;;6.47;2.10;;;;;;;;;;5008454;28;20049;-82
2023/01/31 13:52:32;;;;;;;5.22;1.33;;;;;;;;;;5010570;28;20031;-81
2023/01/31 13:55:38;;;;;;;4.28;1.50;;;;;;;;;;5008403;28;20058;-81
2023/01/31 13:58:17;;;;;;;7.93;1.88;;;;;;;;;;5010653;28;20508;-82
2023/01/31 14:00:49;;;;;;;6.10;1.63;;;;;;;;;;5011207;28;20050;-83
2023/01/31 14:03:17;;;;;;;6.43;1.77;;;;;;;;;;5010569;28;20022;-81
2023/01/31 14:05:51;;;;;;;7.53;1.80;;;;;;;;;;5010125;28;20030;-82
2023/01/31 14:08:25;;;;;;;9.07;1.77;;;;;;;;;;5010467;28;20037;-81
2023/01/31 14:10:50;;;;;;;;;;;;;;;;;;5011729;28;20179;-82
2023/01/31 14:13:25;;;;;;;6.27;1.90;;;;;;;;;;5010515;28;19913;-81
2023/01/31 14:15:51;;;;;;;4.28;1.63;;;;;;;;;;5010412;28;20284;-80
2023/01/31 14:18:46;;;;;;;4.68;1.48;;;;;;;;;;5012109;28;20030;-81
2023/01/31 14:21:29;;;;;;;;;;;;;;;;;;5010147;28;20029;-81
2023/01/31 14:23:56;;;;;;;5.65;1.80;;;;;;;;;;5009523;28;19909;-82
2023/01/31 14:26:51;;;;;;;9.30;2.22;;;;;;;;;;5007476;28;20038;-82
2023/01/31 14:29:25;;;;;;;;;;;;;;;;;;5007938;28;20038;-80
2023/01/31 14:31:52;;;;;;;;;;;;;;;;;;5011401;28;19969;-81
2023/01/31 14:34:26;;;;;;;4.18;1.90;;;;;;;;;;5009711;28;19921;-82
2023/01/31 14:37:24;;;;;;;10.82;2.33;;;;;;;;;;5009244;28;20034;-80
2023/01/31 14:40:27;;;;;;;6.22;2.00;;;;;;;;;;5009480;28;20090;-81
2023/01/31 14:43:10;;;;;;;5.05;1.67;;;;;;;;;;5009028;28;20052;-81
2023/01/31 14:45:52;;;;;;;5.37;1.83;;;;;;;;;;5008966;28;20093;-81
2023/01/31 14:48:38;;;;;;;6.45;2.03;;;;;;;;;;5010489;28;20252;-81
2023/01/31 14:51:23;;;;;;;7.80;2.10;;;;;;;;;;5010273;28;20509;-80
2023/01/31 14:54:26;;;;;;;9.63;1.75;;;;;;;;;;5007053;28;20030;-81
2023/01/31 14:57:09;;;;;;;8.43;2.05;;;;;;;;;;5006009;28;20101;-81
2023/01/31 14:59:51;;;;;;;5.07;1.88;;;;;;;;;;5013438;28;20049;-80
2023/01/31 15:02:30;;;;;;;10.13;1.88;;;;;;;;;;5020218;28;20042;-81
2023/01/31 15:05:06;;;;;;;3.47;1.80;;;;;;;;;;5020292;28;20030;-81
2023/01/31 15:07:32;;;;;;;4.40;1.70;;;;;;;;;;5020482;28;20053;-80
2023/01/31 15:09:57;;;;;;;4.75;1.50;;;;;;;;;;5020737;28;20035;-80
2023/01/31 15:12:52;;;;;;;5.35;1.70;;;;;;;;;;5020400;28;20034;-81
2023/01/31 15:15:31;;;;;;;5.55;1.90;;;;;;;;;;5020619;28;20034;-80
2023/01/31 15:18:00;;;;;;;5.75;1.58;;;;;;;;;;5020182;28;20033;-80
2023/01/31 15:20:42;;;;;;;4.85;1.80;;;;;;;;;;5020034;28;20038;-82